Time;durP1;ratioP1;P1;durP2;ratioP2;P2;SDS_P1;SDS_P2;PMS_P1;PMS_P2;Temp;Humidity;BMP_temperature;BMP_pressure;BME280_temperature;BME280_humidity;BME280_pressure;Samples;Min_cycle;Max_cycle;Signal;HPM_P1;HPM_P2
2023/11/10 00:01:42;;;;;;;3.70;2.45;;;;;;;7.37;100.00;96985.41;1225853;75;2914726;-70
2023/11/10 00:04:19;;;;;;;3.50;2.30;;;;;;;7.55;100.00;96976.28;1224897;75;2908103;-68
2023/11/10 00:06:52;;;;;;;3.05;2.55;;;;;;;7.36;100.00;96984.66;1225382;75;2911264;-68
2023/11/10 00:09:24;;;;;;;5.60;4.10;;;;;;;6.87;100.00;96988.00;1225381;75;2915897;-68
2023/11/10 00:11:57;;;;;;;4.75;3.15;;;;;;;7.44;100.00;96976.84;1225553;75;2917640;-70
2023/11/10 00:14:30;;;;;;;3.95;2.80;;;;;;;7.53;100.00;96984.16;1225745;75;2920279;-70
2023/11/10 00:17:02;;;;;;;3.20;2.50;;;;;;;7.62;100.00;96995.69;1224764;75;2945702;-69
2023/11/10 00:19:38;;;;;;;3.65;2.20;;;;;;;7.45;100.00;96994.69;1223663;75;2915497;-69
2023/11/10 00:22:10;;;;;;;4.00;2.60;;;;;;;7.18;100.00;96993.75;1225480;75;2908714;-67
2023/11/10 00:24:45;;;;;;;4.65;2.95;;;;;;;7.43;100.00;96989.72;1225467;75;2910668;-71
2023/11/10 00:27:18;;;;;;;3.25;2.30;;;;;;;7.56;100.00;96991.41;1224831;75;2911299;-70
2023/11/10 00:29:50;;;;;;;3.00;2.60;;;;;;;7.44;100.00;96982.31;1226006;75;2916529;-68
2023/11/10 00:32:24;;;;;;;3.95;2.55;;;;;;;7.58;100.00;96984.25;1225608;75;2907769;-66
2023/11/10 00:34:59;;;;;;;5.05;3.20;;;;;;;7.06;100.00;96981.16;1212205;75;3919458;-67
2023/11/10 00:37:32;;;;;;;4.75;3.20;;;;;;;7.29;100.00;96987.00;1225498;75;2921272;-67
2023/11/10 00:40:06;;;;;;;4.70;3.15;;;;;;;7.39;100.00;96983.72;1224823;75;2910778;-68
2023/11/10 00:42:39;;;;;;;3.80;3.00;;;;;;;7.20;100.00;96983.16;1225502;75;2916210;-68
2023/11/10 00:45:12;;;;;;;4.65;3.50;;;;;;;7.46;100.00;96993.47;1225240;75;2917581;-71
2023/11/10 00:47:45;;;;;;;4.50;3.05;;;;;;;7.73;100.00;96988.94;1224830;75;2915472;-71
2023/11/10 00:50:21;;;;;;;4.60;3.35;;;;;;;7.45;100.00;96981.81;1224942;75;2915178;-69
2023/11/10 00:52:54;;;;;;;6.20;3.90;;;;;;;7.36;100.00;96981.16;1225319;75;2914967;-71
2023/11/10 00:55:26;;;;;;;4.95;3.45;;;;;;;7.38;100.00;96979.47;1225678;75;2916740;-71
2023/11/10 00:57:59;;;;;;;4.55;3.10;;;;;;;7.41;100.00;96983.25;1222840;75;2908959;-67
2023/11/10 01:00:32;;;;;;;4.50;2.90;;;;;;;7.61;100.00;96977.13;1225583;75;2915281;-68
2023/11/10 01:03:08;;;;;;;3.50;2.30;;;;;;;7.78;100.00;96980.84;1225243;75;2916014;-66
2023/11/10 01:05:46;;;;;;;2.45;1.95;;;;;;;7.71;100.00;96978.50;1224454;75;2919090;-67
2023/11/10 01:08:19;;;;;;;3.00;2.40;;;;;;;7.41;100.00;96970.38;1226199;75;2934012;-70
2023/11/10 01:10:52;;;;;;;3.55;2.25;;;;;;;7.29;100.00;96976.09;1224728;75;2914310;-68
2023/11/10 01:13:24;;;;;;;3.65;2.65;;;;;;;7.36;100.00;96971.06;1225441;75;2915495;-67
2023/11/10 01:15:57;;;;;;;2.65;2.00;;;;;;;7.36;100.00;96970.28;1225764;75;2910691;-67
2023/11/10 01:18:30;;;;;;;4.15;2.50;;;;;;;7.36;100.00;96984.66;1223017;75;2963668;-70
2023/11/10 01:21:05;;;;;;;2.85;2.25;;;;;;;7.59;100.00;96971.38;1225238;75;2914189;-67
2023/11/10 01:23:38;;;;;;;2.55;1.75;;;;;;;7.73;100.00;96973.34;1225850;75;2908721;-68
2023/11/10 01:26:10;;;;;;;4.55;2.70;;;;;;;7.47;100.00;96979.38;1225809;75;2911379;-70
2023/11/10 01:28:43;;;;;;;3.95;2.70;;;;;;;7.46;100.00;96968.97;1225937;75;2915432;-67
2023/11/10 01:31:16;;;;;;;2.90;2.10;;;;;;;7.81;100.00;96965.53;1225987;75;2907354;-68
2023/11/10 01:33:48;;;;;;;2.45;1.70;;;;;;;8.03;100.00;96970.53;1225122;75;2913738;-69
2023/11/10 01:36:24;;;;;;;2.40;1.55;;;;;;;8.05;100.00;96963.38;1224678;75;2913826;-70
2023/11/10 01:38:58;;;;;;;1.95;1.50;;;;;;;7.96;100.00;96960.78;1224878;75;2908488;-68
2023/11/10 01:41:30;;;;;;;3.20;2.25;;;;;;;7.60;100.00;96956.53;1224897;75;2911998;-68
2023/11/10 01:44:03;;;;;;;4.00;2.55;;;;;;;7.65;100.00;96962.09;1224719;75;2914146;-72
2023/11/10 01:46:54;;;;;;;2.10;1.80;;;;;;;8.02;100.00;96955.41;1225510;75;2914259;-66
2023/11/10 01:49:28;;;;;;;2.25;1.65;;;;;;;8.03;100.00;96948.72;1225342;75;2916737;-68
2023/11/10 01:52:06;;;;;;;1.85;1.50;;;;;;;7.96;100.00;96954.56;1225023;67;2914581;-68
2023/11/10 01:54:40;;;;;;;2.50;1.40;;;;;;;8.02;100.00;96953.44;1225169;75;2915902;-68
2023/11/10 01:57:13;;;;;;;2.10;1.50;;;;;;;7.90;100.00;96949.06;1221112;75;3155125;-67
2023/11/10 01:59:50;;;;;;;1.95;1.30;;;;;;;8.03;100.00;96946.00;1225479;75;2906232;-67
2023/11/10 02:02:22;;;;;;;2.70;1.60;;;;;;;7.88;100.00;96938.63;1226300;75;2913339;-66
2023/11/10 02:04:55;;;;;;;2.40;1.60;;;;;;;7.88;100.00;96937.88;1225356;75;2913883;-66
2023/11/10 02:07:30;;;;;;;2.50;1.60;;;;;;;7.85;100.00;96936.84;1226166;75;2910188;-63
2023/11/10 02:10:03;;;;;;;1.70;1.50;;;;;;;7.93;100.00;96920.84;1224161;75;2937942;-64
2023/11/10 02:12:36;;;;;;;1.80;1.35;;;;;;;7.82;100.00;96926.16;1225681;75;2910836;-67
2023/11/10 02:15:11;;;;;;;3.00;1.65;;;;;;;7.81;100.00;96921.91;1225395;75;2914113;-67
2023/11/10 02:17:43;;;;;;;2.20;1.40;;;;;;;7.82;100.00;96926.16;1224830;75;2916476;-66
2023/11/10 02:20:16;;;;;;;2.35;1.60;;;;;;;7.81;100.00;96928.13;1226585;75;2916533;-68
2023/11/10 02:22:52;;;;;;;3.30;1.60;;;;;;;7.76;100.00;96923.34;1225280;75;2915050;-66
2023/11/10 02:25:28;;;;;;;2.75;1.70;;;;;;;7.77;100.00;96924.09;1224705;75;2935077;-67
2023/11/10 02:28:01;;;;;;;4.60;1.60;;;;;;;7.80;100.00;96909.53;1224784;75;2917567;-67
2023/11/10 02:30:33;;;;;;;3.15;1.60;;;;;;;7.76;100.00;96909.72;1224860;75;2914138;-68
2023/11/10 02:33:06;;;;;;;2.20;1.50;;;;;;;7.83;100.00;96911.31;1224185;75;2923228;-68
2023/11/10 02:35:39;;;;;;;2.15;1.70;;;;;;;7.78;100.00;96907.28;1223461;75;2919742;-67
2023/11/10 02:38:11;;;;;;;1.70;1.40;;;;;;;7.78;100.00;96906.53;1214227;75;3599449;-66
2023/11/10 02:40:47;;;;;;;2.00;1.50;;;;;;;7.71;100.00;96896.78;1224999;75;2920720;-67
2023/11/10 02:43:19;;;;;;;2.85;1.60;;;;;;;7.74;100.00;96898.53;1224400;75;2922820;-68
2023/11/10 02:45:52;;;;;;;2.55;1.50;;;;;;;7.76;100.00;96904.28;1224513;75;2920256;-68
2023/11/10 02:48:25;;;;;;;2.25;1.50;;;;;;;7.73;100.00;96888.88;1224628;75;2922695;-66
2023/11/10 02:50:58;;;;;;;2.95;1.90;;;;;;;7.68;100.00;96893.03;1223887;75;2927374;-68
2023/11/10 02:53:30;;;;;;;3.50;2.10;;;;;;;7.69;100.00;96891.78;1224494;75;2922766;-67
2023/11/10 02:56:07;;;;;;;2.75;1.75;;;;;;;7.78;100.00;96890.94;1224094;75;2921732;-66
2023/11/10 02:58:40;;;;;;;1.75;1.40;;;;;;;7.75;100.00;96894.59;1225364;75;2921029;-68
2023/11/10 03:01:12;;;;;;;2.85;1.60;;;;;;;7.78;100.00;96899.09;1225546;75;2920400;-67
2023/11/10 03:03:45;;;;;;;1.65;1.30;;;;;;;7.80;100.00;96893.94;1225743;75;2925440;-67
2023/11/10 03:06:18;;;;;;;2.15;1.35;;;;;;;7.82;100.00;96893.47;1225131;75;2920068;-68
2023/11/10 03:08:51;;;;;;;2.70;1.65;;;;;;;7.78;100.00;96892.91;1224299;75;2926115;-67
2023/11/10 03:11:26;;;;;;;1.60;1.20;;;;;;;7.81;100.00;96897.41;1225190;75;2928247;-67
2023/11/10 03:13:59;;;;;;;1.80;1.25;;;;;;;7.95;100.00;96882.97;1225740;75;2913018;-65
2023/11/10 03:16:31;;;;;;;1.45;1.20;;;;;;;7.98;100.00;96889.44;1224823;75;2915795;-68
2023/11/10 03:19:04;;;;;;;1.30;1.20;;;;;;;7.89;100.00;96888.34;1225751;75;2915010;-68
2023/11/10 03:21:37;;;;;;;1.35;1.20;;;;;;;8.00;100.00;96887.00;1225049;75;2911981;-65
2023/11/10 03:24:10;;;;;;;1.10;1.00;;;;;;;8.08;100.00;96888.06;1225509;75;2923296;-66
2023/11/10 03:26:46;;;;;;;1.15;0.90;;;;;;;7.98;100.00;96884.72;1225078;75;2919491;-67
2023/11/10 03:29:19;;;;;;;1.90;1.15;;;;;;;8.09;100.00;96882.16;1225767;75;2916582;-67
2023/11/10 03:31:51;;;;;;;3.80;1.00;;;;;;;7.89;100.00;96874.72;1223705;75;2939084;-65
2023/11/10 03:34:24;;;;;;;2.15;1.10;;;;;;;7.88;100.00;96865.03;1225215;75;2918307;-68
2023/11/10 03:36:57;;;;;;;3.55;1.60;;;;;;;7.95;100.00;96874.03;1225779;75;2917248;-68
2023/11/10 03:39:29;;;;;;;1.60;1.25;;;;;;;7.94;100.00;96867.84;1225552;75;2921290;-70
2023/11/10 03:42:05;;;;;;;2.30;1.50;;;;;;;7.87;100.00;96870.97;1225258;75;2919092;-67
2023/11/10 03:44:38;;;;;;;2.00;1.60;;;;;;;7.96;100.00;96859.19;1225390;75;2927770;-65
2023/11/10 03:47:11;;;;;;;1.40;1.10;;;;;;;7.92;100.00;96862.13;1225651;75;2915462;-67
2023/11/10 03:49:43;;;;;;;3.15;1.65;;;;;;;7.59;100.00;96859.72;1224894;75;2916954;-65
2023/11/10 03:52:17;;;;;;;3.05;2.30;;;;;;;7.75;100.00;96863.91;1225952;75;2925481;-69
2023/11/10 03:54:49;;;;;;;4.70;2.70;;;;;;;7.51;100.00;96859.38;1225957;75;2912739;-68
2023/11/10 03:57:24;;;;;;;3.40;2.50;;;;;;;7.77;100.00;96855.97;1225754;75;2915766;-68
2023/11/10 03:59:57;;;;;;;4.55;2.55;;;;;;;7.98;100.00;96851.28;1224705;75;2911246;-66
2023/11/10 04:02:30;;;;;;;3.10;2.25;;;;;;;7.92;100.00;96858.66;1224743;75;2932652;-69
2023/11/10 04:05:02;;;;;;;3.75;2.65;;;;;;;7.84;100.00;96844.66;1224032;75;2914002;-68
2023/11/10 04:07:35;;;;;;;2.60;1.95;;;;;;;8.16;100.00;96842.09;1222619;75;3026612;-66
2023/11/10 04:10:10;;;;;;;1.60;1.50;;;;;;;8.19;100.00;96836.41;1224517;75;2917383;-65
2023/11/10 04:12:45;;;;;;;3.25;2.20;;;;;;;7.79;100.00;96831.72;1220404;75;3105872;-69
2023/11/10 04:15:18;;;;;;;2.25;1.80;;;;;;;7.99;100.00;96831.72;1223689;75;2911739;-68
2023/11/10 04:17:51;;;;;;;1.60;1.30;;;;;;;8.19;100.00;96832.94;1223135;75;2919550;-68
2023/11/10 04:20:24;;;;;;;1.90;1.45;;;;;;;8.18;100.00;96823.25;1219383;75;3054380;-67
2023/11/10 04:22:56;;;;;;;2.05;1.20;;;;;;;8.22;100.00;96824.53;1224487;75;2920243;-67
2023/11/10 04:25:29;;;;;;;1.45;1.05;;;;;;;8.02;100.00;96822.59;1224491;75;2915183;-71
2023/11/10 04:28:04;;;;;;;1.45;1.30;;;;;;;8.26;100.00;96816.16;1224355;75;2922866;-69
2023/11/10 04:30:37;;;;;;;1.15;1.05;;;;;;;8.24;100.00;96811.19;1224234;75;2921677;-67
2023/11/10 04:33:10;;;;;;;2.25;1.45;;;;;;;8.16;100.00;96804.66;1224276;75;2922152;-67
2023/11/10 04:35:42;;;;;;;1.65;1.30;;;;;;;8.07;100.00;96808.28;1224333;75;2925863;-70
2023/11/10 04:38:15;;;;;;;2.00;1.60;;;;;;;8.05;100.00;96809.97;1223512;75;2920145;-69
2023/11/10 04:40:49;;;;;;;2.15;1.60;;;;;;;7.97;100.00;96806.19;1223475;75;2916230;-65
2023/11/10 04:43:24;;;;;;;1.70;1.50;;;;;;;8.03;100.00;96806.97;1222726;75;2918841;-66
2023/11/10 04:45:57;;;;;;;2.35;1.50;;;;;;;7.94;100.00;96801.69;1223426;75;2917514;-67
2023/11/10 04:48:30;;;;;;;2.05;1.50;;;;;;;7.98;100.00;96792.06;1220014;75;3058608;-67
2023/11/10 04:51:05;;;;;;;1.85;1.65;;;;;;;7.87;100.00;96795.44;1223526;75;2922695;-68
2023/11/10 04:53:38;;;;;;;2.35;1.60;;;;;;;8.07;100.00;96789.19;1224076;75;2915831;-67
2023/11/10 04:56:12;;;;;;;1.80;1.20;;;;;;;8.08;100.00;96789.94;1222869;75;2914413;-67
2023/11/10 04:58:50;;;;;;;1.55;1.45;;;;;;;8.12;100.00;96798.66;1224200;75;2914372;-69
2023/11/10 05:01:22;;;;;;;1.30;1.00;;;;;;;8.20;100.00;96793.53;1221664;75;2924468;-71
2023/11/10 05:03:55;;;;;;;1.50;1.20;;;;;;;8.08;100.00;96789.94;1223612;75;2918503;-66
2023/11/10 05:06:34;;;;;;;3.15;1.90;;;;;;;7.93;100.00;96786.56;1223090;75;2926861;-66
2023/11/10 05:09:08;;;;;;;3.90;1.70;;;;;;;7.85;100.00;96788.97;1223496;75;2918952;-66
2023/11/10 05:11:41;;;;;;;3.55;1.85;;;;;;;7.86;100.00;96787.72;1222542;75;2929012;-68
2023/11/10 05:14:16;;;;;;;3.20;2.40;;;;;;;7.92;100.00;96782.34;1223116;75;2937824;-69
2023/11/10 05:16:49;;;;;;;4.60;3.00;;;;;;;7.65;100.00;96793.19;1223055;75;2924463;-66
2023/11/10 05:19:21;;;;;;;4.85;3.30;;;;;;;7.84;100.00;96785.50;1222554;75;2932608;-69
2023/11/10 05:21:54;;;;;;;3.95;2.75;;;;;;;8.02;100.00;96791.88;1223092;75;2929892;-68
2023/11/10 05:24:27;;;;;;;2.60;2.10;;;;;;;8.24;100.00;96791.34;1222486;75;2921814;-67
2023/11/10 05:27:00;;;;;;;2.85;2.10;;;;;;;8.02;100.00;96789.88;1223196;75;2926279;-68
2023/11/10 05:29:35;;;;;;;2.45;2.25;;;;;;;8.04;100.00;96792.16;1222920;75;2925720;-68
2023/11/10 05:32:08;;;;;;;3.00;2.50;;;;;;;7.94;100.00;96788.03;1223365;75;2929490;-66
2023/11/10 05:34:41;;;;;;;3.15;2.60;;;;;;;7.91;100.00;96795.22;1222550;75;2929708;-66
2023/11/10 05:37:14;;;;;;;4.50;3.60;;;;;;;8.07;100.00;96797.38;1222811;75;2933560;-69
2023/11/10 05:39:47;;;;;;;6.35;4.05;;;;;;;8.34;100.00;96789.94;1223630;75;2929578;-66
2023/11/10 05:42:20;;;;;;;3.55;2.90;;;;;;;8.39;100.00;96781.06;1223394;75;2927199;-65
2023/11/10 05:44:55;;;;;;;3.85;2.80;;;;;;;8.45;100.00;96783.91;1222922;75;2930139;-66
2023/11/10 05:47:28;;;;;;;3.45;2.55;;;;;;;8.33;100.00;96791.94;1222997;75;2919945;-68
2023/11/10 05:50:01;;;;;;;2.25;1.90;;;;;;;8.23;100.00;96792.59;1223611;75;2930385;-69
2023/11/10 05:52:33;;;;;;;2.00;1.60;;;;;;;8.25;100.00;96793.59;1221817;75;2933654;-69
2023/11/10 05:55:06;;;;;;;3.10;2.15;;;;;;;8.09;100.00;96786.75;1223265;75;2937888;-67
2023/11/10 05:57:43;;;;;;;4.70;2.75;;;;;;;7.91;100.00;96795.22;1207704;75;4216637;-67
2023/11/10 06:00:26;;;;;;;4.75;2.95;;;;;;;7.83;100.00;96794.13;1223514;75;2923618;-71
2023/11/10 06:03:00;;;;;;;3.25;2.40;;;;;;;7.97;100.00;96787.84;1223899;75;2923798;-65
2023/11/10 06:05:34;;;;;;;5.40;2.40;;;;;;;8.01;100.00;96788.41;1223611;75;2923548;-68
2023/11/10 06:08:08;;;;;;;3.00;2.00;;;;;;;8.01;100.00;96784.91;1222826;75;2921731;-67
2023/11/10 06:10:46;;;;;;;2.60;1.95;;;;;;;8.01;100.00;96785.69;1223041;75;2932315;-68
2023/11/10 06:13:21;;;;;;;3.05;2.00;;;;;;;7.99;100.00;96779.94;1219705;75;3091857;-69
2023/11/10 06:15:56;;;;;;;3.35;1.90;;;;;;;8.11;100.00;96786.28;1223597;75;2921856;-67
2023/11/10 06:18:29;;;;;;;2.90;2.15;;;;;;;7.96;100.00;96783.66;1223666;75;2924216;-69
2023/11/10 06:21:04;;;;;;;3.95;2.00;;;;;;;8.09;100.00;96786.00;1223860;75;2930414;-67
2023/11/10 06:23:37;;;;;;;2.40;1.95;;;;;;;8.17;100.00;96781.59;1223892;75;2928445;-66
2023/11/10 06:26:10;;;;;;;3.15;2.35;;;;;;;8.43;100.00;96789.81;1224135;75;2929198;-67
2023/11/10 06:28:43;;;;;;;4.10;2.85;;;;;;;8.55;100.00;96784.47;1223881;75;2942837;-68
2023/11/10 06:31:20;;;;;;;3.65;2.80;;;;;;;8.56;100.00;96778.50;1224461;75;2930824;-70
2023/11/10 06:33:53;;;;;;;3.40;2.40;;;;;;;8.24;100.00;96772.25;1224416;75;2924968;-69
2023/11/10 06:36:25;;;;;;;2.85;2.20;;;;;;;8.16;100.00;96771.94;1223932;75;2923480;-68
2023/11/10 06:38:58;;;;;;;3.55;2.45;;;;;;;8.29;100.00;96775.03;1223944;75;2938815;-66
2023/11/10 06:41:31;;;;;;;3.00;1.80;;;;;;;8.40;100.00;96779.13;1223826;75;2922722;-68
2023/11/10 06:44:03;;;;;;;1.90;1.55;;;;;;;8.52;100.00;96778.75;1223717;75;2927819;-67
2023/11/10 06:46:39;;;;;;;2.05;1.20;;;;;;;8.67;100.00;96784.06;1224554;75;2919342;-67
2023/11/10 06:49:11;;;;;;;1.75;1.30;;;;;;;8.71;100.00;96781.13;1223697;75;2924735;-68
2023/11/10 06:51:44;;;;;;;1.20;1.10;;;;;;;8.61;100.00;96782.53;1224176;75;2922776;-70
2023/11/10 06:54:17;;;;;;;1.40;1.30;;;;;;;8.76;100.00;96768.78;1225137;75;2911397;-69
2023/11/10 06:56:50;;;;;;;1.10;1.00;;;;;;;8.81;100.00;96770.78;1224509;75;2916998;-66
2023/11/10 06:59:25;;;;;;;1.95;1.50;;;;;;;8.45;100.00;96771.00;1224665;75;2913978;-71
2023/11/10 07:02:02;;;;;;;5.70;3.40;;;;;;;8.23;100.00;96771.53;1224906;75;2926198;-69
2023/11/10 07:04:34;;;;;;;6.95;4.40;;;;;;;8.25;100.00;96771.78;1222971;75;2924053;-67
2023/11/10 07:07:07;;;;;;;5.70;4.75;;;;;;;8.31;100.00;96775.31;1224229;75;2918226;-66
2023/11/10 07:09:40;;;;;;;4.20;3.50;;;;;;;8.40;100.00;96768.97;1224794;75;2920272;-67
2023/11/10 07:12:14;;;;;;;5.25;3.90;;;;;;;8.32;100.00;96776.81;1223978;75;2927428;-66
2023/11/10 07:14:48;;;;;;;5.75;4.80;;;;;;;8.32;100.00;96765.13;1224291;75;2919573;-65
2023/11/10 07:17:24;;;;;;;5.90;4.25;;;;;;;8.28;100.00;96770.81;1223750;75;2927302;-67
2023/11/10 07:19:56;;;;;;;5.25;3.75;;;;;;;8.25;100.00;96773.75;1224808;75;2922320;-69
2023/11/10 07:22:30;;;;;;;10.50;6.10;;;;;;;8.16;100.00;96771.94;1222324;75;2933399;-68
2023/11/10 07:25:03;;;;;;;10.50;7.05;;;;;;;8.26;100.00;96765.09;1223565;75;2920735;-69
2023/11/10 07:27:36;;;;;;;15.85;9.75;;;;;;;8.16;100.00;96763.75;1222092;75;2976007;-68
2023/11/10 07:30:11;;;;;;;11.70;7.55;;;;;;;8.27;100.00;96755.69;1224700;75;2921493;-70
2023/11/10 07:32:46;;;;;;;10.40;7.00;;;;;;;8.34;100.00;96759.94;1224413;75;2921197;-67
2023/11/10 07:35:20;;;;;;;7.85;5.65;;;;;;;8.34;100.00;96757.22;1224838;75;2922667;-70
2023/11/10 07:37:53;;;;;;;6.05;4.45;;;;;;;8.63;100.00;96755.50;1222702;75;2930181;-68
2023/11/10 07:40:26;;;;;;;6.75;4.85;;;;;;;8.64;100.00;96755.03;1223732;75;2923166;-70
2023/11/10 07:42:59;;;;;;;5.65;4.00;;;;;;;8.70;100.00;96758.53;1224682;75;2923939;-68
2023/11/10 07:45:34;;;;;;;4.15;3.20;;;;;;;8.73;100.00;96751.38;1222860;75;2919559;-67
2023/11/10 07:48:09;;;;;;;4.80;3.40;;;;;;;8.71;100.00;96760.06;1222695;75;2919160;-67
2023/11/10 07:50:42;;;;;;;4.30;3.20;;;;;;;8.63;100.00;96756.25;1223668;75;2916711;-70
2023/11/10 07:53:15;;;;;;;4.85;3.55;;;;;;;8.68;100.00;96758.31;1223667;75;2923791;-66
2023/11/10 07:55:49;;;;;;;3.70;2.85;;;;;;;8.87;100.00;96760.66;1222745;75;2923299;-69
2023/11/10 07:58:21;;;;;;;3.50;2.60;;;;;;;8.93;100.00;96756.72;1222694;75;2921609;-68
2023/11/10 08:00:54;;;;;;;2.80;2.50;;;;;;;9.13;100.00;96755.09;1224677;75;2918596;-71
2023/11/10 08:03:30;;;;;;;3.35;2.40;;;;;;;9.26;100.00;96755.44;1222450;75;2916552;-67
2023/11/10 08:06:03;;;;;;;2.30;1.90;;;;;;;9.29;100.00;96749.00;1222497;75;2924352;-67
2023/11/10 08:08:35;;;;;;;2.50;2.15;;;;;;;9.36;100.00;96739.59;1222928;75;2916806;-67
2023/11/10 08:11:11;;;;;;;2.65;2.10;;;;;;;9.42;100.00;96742.34;1224023;75;2912831;-69
2023/11/10 08:13:44;;;;;;;2.70;2.10;;;;;;;9.34;100.00;96748.28;1223887;75;2920051;-68
2023/11/10 08:16:17;;;;;;;4.40;2.20;;;;;;;9.43;100.00;96741.88;1222833;75;2911270;-69
2023/11/10 08:18:53;;;;;;;3.30;1.85;;;;;;;9.48;100.00;96745.84;1224221;75;2917467;-67
2023/11/10 08:21:25;;;;;;;1.90;1.70;;;;;;;9.47;100.00;96736.16;1224232;75;2921362;-70
2023/11/10 08:23:58;;;;;;;2.05;1.60;;;;;;;9.52;100.00;96735.44;1223395;75;2920166;-67
2023/11/10 08:26:30;;;;;;;1.95;1.45;;;;;;;9.55;100.00;96737.19;1224368;75;2918776;-70
2023/11/10 08:29:04;;;;;;;2.35;1.45;;;;;;;9.65;100.00;96724.81;1222909;75;2935237;-71
2023/11/10 08:31:36;;;;;;;2.30;1.45;;;;;;;9.64;100.00;96731.50;1223105;75;2914026;-67
2023/11/10 08:34:11;;;;;;;1.40;1.20;;;;;;;9.67;100.00;96722.34;1223601;75;2925768;-68
2023/11/10 08:36:41;;;;;;;1.85;1.40;;;;;;;9.68;100.00;96723.81;1224149;75;2920137;-68
2023/11/10 08:39:14;;;;;;;1.80;1.30;;;;;;;9.82;100.00;96722.84;1224227;75;2914574;-67
2023/11/10 08:41:51;;;;;;;1.30;1.10;;;;;;;9.84;100.00;96727.84;1224130;75;2914299;-68
2023/11/10 08:44:23;;;;;;;1.55;1.25;;;;;;;9.89;100.00;96718.91;1226280;75;2900924;-71
2023/11/10 08:46:56;;;;;;;1.90;1.75;;;;;;;9.87;100.00;96732.31;1224473;75;2918554;-68
2023/11/10 08:49:31;;;;;;;2.30;1.20;;;;;;;9.99;100.00;96716.69;1223807;75;2925809;-68
2023/11/10 08:52:04;;;;;;;1.60;1.30;;;;;;;9.98;100.00;96720.66;1223605;75;2923291;-70
2023/11/10 08:54:37;;;;;;;2.05;1.55;;;;;;;9.95;100.00;96705.25;1223301;75;2925591;-67
2023/11/10 08:57:10;;;;;;;1.35;1.25;;;;;;;9.96;100.00;96702.03;1222840;75;2923223;-67
2023/11/10 08:59:43;;;;;;;1.95;1.50;;;;;;;10.06;100.00;96699.06;1222846;75;2919979;-68
2023/11/10 09:02:16;;;;;;;2.20;1.50;;;;;;;10.10;100.00;96703.03;1223821;75;2914793;-66
2023/11/10 09:04:54;;;;;;;1.85;1.30;;;;;;;10.20;100.00;96700.81;1222495;75;2921393;-70
2023/11/10 09:07:27;;;;;;;1.60;1.30;;;;;;;10.09;100.00;96696.06;1220424;75;2928166;-69
2023/11/10 09:10:00;;;;;;;2.15;1.50;;;;;;;10.18;100.00;96695.09;1222662;75;2921219;-68
2023/11/10 09:12:32;;;;;;;2.55;1.40;;;;;;;10.13;100.00;96691.09;1221659;75;2927879;-66
2023/11/10 09:15:05;;;;;;;1.55;1.40;;;;;;;10.17;100.00;96693.56;1222329;75;2924021;-69
2023/11/10 09:17:38;;;;;;;3.05;1.65;;;;;;;10.31;100.00;96689.88;1221207;75;2930331;-67
2023/11/10 09:20:16;;;;;;;1.50;1.25;;;;;;;10.28;100.00;96687.38;1223215;75;2920245;-71
2023/11/10 09:22:49;;;;;;;2.00;1.40;;;;;;;10.27;100.00;96678.44;1223111;75;2919048;-69
2023/11/10 09:25:22;;;;;;;2.35;1.60;;;;;;;10.22;100.00;96662.75;1222167;75;2929757;-68
2023/11/10 09:27:57;;;;;;;2.25;1.80;;;;;;;10.10;100.00;96662.03;1222852;75;2921842;-69
2023/11/10 09:30:30;;;;;;;2.15;1.60;;;;;;;10.22;100.00;96665.47;1223199;75;2922235;-68
2023/11/10 09:33:02;;;;;;;2.00;1.60;;;;;;;10.17;100.00;96660.75;1222243;75;2927030;-67
2023/11/10 09:35:38;;;;;;;2.60;1.90;;;;;;;10.17;100.00;96661.53;1222651;75;2921266;-70
2023/11/10 09:38:11;;;;;;;1.55;1.35;;;;;;;10.29;100.00;96658.81;1221994;75;2922140;-67
2023/11/10 09:40:43;;;;;;;2.55;2.00;;;;;;;10.07;100.00;96652.06;1222949;75;2924882;-67
2023/11/10 09:43:16;;;;;;;2.55;2.20;;;;;;;9.94;100.00;96649.81;1223062;75;2918868;-68
2023/11/10 09:45:54;;;;;;;4.05;2.70;;;;;;;10.09;100.00;96644.09;1223669;75;2918958;-69
2023/11/10 09:48:28;;;;;;;2.30;2.00;;;;;;;10.26;100.00;96635.91;1222727;75;2931297;-69
2023/11/10 09:51:05;;;;;;;2.95;2.15;;;;;;;10.30;100.00;96632.94;1223325;75;2926230;-69
2023/11/10 09:53:41;;;;;;;2.30;2.00;;;;;;;10.19;100.00;96628.19;1223464;75;2921981;-69
2023/11/10 09:56:15;;;;;;;3.85;2.45;;;;;;;10.20;100.00;96624.22;1223529;75;2932376;-69
2023/11/10 09:58:48;;;;;;;3.65;2.20;;;;;;;10.19;100.00;96614.53;1222218;75;2918632;-67
2023/11/10 10:01:21;;;;;;;3.70;2.30;;;;;;;10.26;100.00;96618.75;1222817;75;2932602;-68
2023/11/10 10:03:54;;;;;;;2.50;1.80;;;;;;;10.38;100.00;96610.06;1223893;75;2917869;-65
2023/11/10 10:06:30;;;;;;;2.55;1.85;;;;;;;10.23;100.00;96607.56;1223575;75;2915097;-69
2023/11/10 10:09:09;;;;;;;4.65;3.15;;;;;;;9.86;100.00;96599.63;1222817;75;2921632;-65
2023/11/10 10:11:43;;;;;;;4.95;4.00;;;;;;;9.51;100.00;96597.34;1222901;75;2924950;-68
2023/11/10 10:14:17;;;;;;;5.05;3.65;;;;;;;9.41;100.00;96588.63;1223028;75;2933241;-65
2023/11/10 10:16:56;;;;;;;7.85;5.35;;;;;;;9.67;100.00;96582.19;1221648;75;2934777;-69
2023/11/10 10:19:31;;;;;;;5.00;4.30;;;;;;;9.71;100.00;96575.25;1224708;75;2921960;-69
2023/11/10 10:22:07;;;;;;;3.70;3.25;;;;;;;10.06;100.00;96571.28;1224101;75;2925679;-70
2023/11/10 10:24:39;;;;;;;3.60;3.30;;;;;;;9.90;100.00;96572.03;1224736;75;2920168;-70
2023/11/10 10:27:12;;;;;;;3.20;2.75;;;;;;;10.26;100.00;96561.31;1223089;75;2920115;-68
2023/11/10 10:29:45;;;;;;;5.50;3.20;;;;;;;9.87;100.00;96573.78;1224306;75;2921163;-70
2023/11/10 10:32:19;;;;;;;4.40;4.00;;;;;;;9.68;100.00;96570.03;1224055;75;2920180;-69
2023/11/10 10:34:52;;;;;;;4.80;3.45;;;;;;;9.78;100.00;96552.16;1223266;75;2917297;-70
2023/11/10 10:37:29;;;;;;;4.00;3.60;;;;;;;9.53;100.00;96556.63;1223834;75;2922808;-66
2023/11/10 10:40:05;;;;;;;7.50;4.00;;;;;;;9.78;100.00;96547.41;1223122;75;2950209;-67
2023/11/10 10:42:38;;;;;;;6.50;4.10;;;;;;;9.72;100.00;96548.69;1224570;75;2919177;-69
2023/11/10 10:45:13;;;;;;;5.95;3.25;;;;;;;9.69;100.00;96534.03;1223013;75;2922805;-67
2023/11/10 10:47:46;;;;;;;4.65;3.40;;;;;;;10.20;100.00;96534.72;1224326;75;2921737;-67
2023/11/10 10:50:20;;;;;;;3.40;2.30;;;;;;;10.20;100.00;96523.03;1223448;75;2922324;-67
2023/11/10 10:52:58;;;;;;;3.15;2.50;;;;;;;10.44;100.00;96519.78;1221363;75;2922580;-66
2023/11/10 10:55:38;;;;;;;3.10;2.70;;;;;;;10.42;100.00;96523.00;1222772;75;2930474;-68
2023/11/10 10:58:11;;;;;;;4.75;3.65;;;;;;;10.03;100.00;96514.88;1222587;75;2918845;-69
2023/11/10 11:00:44;;;;;;;4.15;3.50;;;;;;;10.19;100.00;96522.28;1222953;75;2933935;-67
2023/11/10 11:03:37;;;;;;;4.60;3.10;;;;;;;10.50;100.00;96517.00;1223632;75;2934487;-66
2023/11/10 11:06:32;;;;;;;3.20;2.70;;;;;;;10.53;100.00;96514.00;1223402;75;2916274;-67
2023/11/10 11:09:28;;;;;;;3.65;2.45;;;;;;;10.63;100.00;96509.75;1224068;75;2924009;-68
2023/11/10 11:12:50;;;;;;;3.95;3.00;;;;;;;10.13;100.00;96498.94;1223234;75;2924192;-71
2023/11/10 11:15:32;;;;;;;5.55;4.50;;;;;;;10.14;100.00;96494.94;1224157;75;2922774;-69
2023/11/10 11:18:28;;;;;;;7.60;5.20;;;;;;;10.03;100.00;96484.78;1224069;75;2917935;-70
2023/11/10 11:21:03;;;;;;;6.00;5.20;;;;;;;9.99;100.00;96485.03;1223960;83;2916500;-69
2023/11/10 11:23:37;;;;;;;5.35;4.40;;;;;;;9.99;100.00;96485.03;1222361;75;2914533;-67
2023/11/10 11:26:19;;;;;;;4.95;4.35;;;;;;;9.87;100.00;96491.03;1224307;75;2930610;-68
2023/11/10 11:28:51;;;;;;;5.20;4.15;;;;;;;10.36;100.00;96477.75;1222345;75;2926994;-69
2023/11/10 11:31:24;;;;;;;3.55;2.60;;;;;;;10.54;100.00;96484.66;1224641;75;2916245;-68
2023/11/10 11:33:56;;;;;;;3.10;2.60;;;;;;;10.64;100.00;96480.38;1223647;75;2919125;-66
2023/11/10 11:36:30;;;;;;;2.10;1.90;;;;;;;10.61;100.00;96479.41;1224452;75;2924109;-70
2023/11/10 11:39:03;;;;;;;3.25;2.70;;;;;;;10.53;100.00;96481.16;1223821;75;2922105;-69
2023/11/10 11:41:41;;;;;;;2.85;2.40;;;;;;;10.45;100.00;96474.72;1223767;75;2904715;-68
2023/11/10 11:44:14;;;;;;;3.30;2.70;;;;;;;10.52;100.00;96474.22;1224125;75;2917785;-67
2023/11/10 11:46:46;;;;;;;3.75;2.80;;;;;;;10.37;100.00;96480.00;1223915;75;2934006;-67
2023/11/10 11:49:20;;;;;;;5.40;3.65;;;;;;;10.22;100.00;96474.03;1223908;75;2918291;-67